Time;durP1;ratioP1;P1;durP2;ratioP2;P2;SDS_P1;SDS_P2;PMS_P1;PMS_P2;Temp;Humidity;BMP_temperature;BMP_pressure;BME280_temperature;BME280_humidity;BME280_pressure;Samples;Min_cycle;Max_cycle;Signal;HPM_P1;HPM_P2
2021/11/23 00:00:19;;;;;;;9.75;7.25;;;2.00;99.90;;;;;;2080266;28;20025;-68
2021/11/23 00:01:20;;;;;;;10.25;8.15;;;1.90;99.90;;;;;;2079310;28;20072;-68
2021/11/23 00:02:24;;;;;;;11.93;7.85;;;1.90;99.90;;;;;;2079115;28;20033;-69
2021/11/23 00:03:24;;;;;;;9.77;8.40;;;2.00;99.90;;;;;;2072259;28;20034;-68
2021/11/23 00:04:25;;;;;;;11.02;8.18;;;2.00;99.90;;;;;;2075732;28;20026;-68
2021/11/23 00:05:25;;;;;;;9.68;7.28;;;1.90;99.90;;;;;;2080282;28;20052;-68
2021/11/23 00:06:26;;;;;;;9.02;7.68;;;1.90;99.90;;;;;;2073020;28;20109;-68
2021/11/23 00:07:26;;;;;;;10.82;7.78;;;1.90;99.90;;;;;;2072997;28;20109;-68
2021/11/23 00:08:27;;;;;;;10.25;7.97;;;2.00;99.90;;;;;;2079356;28;20029;-69
2021/11/23 00:09:28;;;;;;;10.40;7.95;;;2.00;99.90;;;;;;2075453;28;20034;-68
2021/11/23 00:10:28;;;;;;;9.82;7.35;;;1.90;99.90;;;;;;2071915;28;20034;-68
2021/11/23 00:11:29;;;;;;;10.32;8.20;;;1.90;99.90;;;;;;2072264;28;20026;-68
2021/11/23 00:12:30;;;;;;;10.75;7.82;;;1.90;99.90;;;;;;2073518;28;20029;-68
2021/11/23 00:13:30;;;;;;;9.50;7.22;;;1.90;99.90;;;;;;2080618;28;20017;-68
2021/11/23 00:14:31;;;;;;;11.40;7.60;;;1.90;99.90;;;;;;2079368;28;20025;-68
2021/11/23 00:15:35;;;;;;;9.30;8.10;;;1.90;99.90;;;;;;2078094;28;20037;-68
2021/11/23 00:16:36;;;;;;;10.30;7.95;;;1.90;99.90;;;;;;2071534;28;20022;-68
2021/11/23 00:17:36;;;;;;;10.30;7.65;;;1.90;99.90;;;;;;2077079;28;20060;-69
2021/11/23 00:18:37;;;;;;;12.10;7.88;;;1.90;99.90;;;;;;2079530;28;20096;-68
2021/11/23 00:19:37;;;;;;;9.27;7.70;;;1.90;99.90;;;;;;2080539;28;20022;-68
2021/11/23 00:20:42;;;;;;;9.00;7.63;;;1.90;99.90;;;;;;2079745;28;20441;-68
2021/11/23 00:21:43;;;;;;;11.80;8.13;;;1.90;99.90;;;;;;2079945;28;20476;-68
2021/11/23 00:22:43;;;;;;;10.23;8.45;;;1.90;99.90;;;;;;2072721;28;20108;-68
2021/11/23 00:23:44;;;;;;;11.43;7.90;;;1.90;99.90;;;;;;2075635;28;20040;-68
2021/11/23 00:24:45;;;;;;;9.60;8.20;;;1.90;99.90;;;;;;2079784;28;20029;-68
2021/11/23 00:25:46;;;;;;;9.23;7.35;;;1.90;99.90;;;;;;2074688;28;20048;-68
2021/11/23 00:26:47;;;;;;;9.30;7.50;;;1.80;99.90;;;;;;2077322;28;20545;-69
2021/11/23 00:27:47;;;;;;;11.48;7.57;;;1.90;99.90;;;;;;2080124;28;20021;-68
2021/11/23 00:28:48;;;;;;;11.57;7.50;;;1.90;99.90;;;;;;2079493;28;20152;-68
2021/11/23 00:29:48;;;;;;;10.32;8.43;;;1.90;99.90;;;;;;2080229;28;20179;-68
2021/11/23 00:30:49;;;;;;;10.00;7.68;;;1.80;99.90;;;;;;2078734;28;20418;-68
2021/11/23 00:31:49;;;;;;;8.25;7.45;;;1.80;99.90;;;;;;2079225;28;20100;-68
2021/11/23 00:32:54;;;;;;;8.40;7.07;;;1.90;99.90;;;;;;2079881;28;20085;-68
2021/11/23 00:33:55;;;;;;;10.77;7.93;;;1.80;99.90;;;;;;2080164;28;20481;-68
2021/11/23 00:34:56;;;;;;;11.20;8.20;;;1.90;99.90;;;;;;2078727;28;20496;-68
2021/11/23 00:35:57;;;;;;;10.70;7.47;;;1.80;99.90;;;;;;2071223;28;20101;-68
2021/11/23 00:36:59;;;;;;;9.40;8.18;;;1.80;99.90;;;;;;2074887;28;20021;-68
2021/11/23 00:38:01;;;;;;;11.40;8.43;;;1.80;99.90;;;;;;2079292;28;20381;-68
2021/11/23 00:39:01;;;;;;;9.98;8.13;;;1.80;99.90;;;;;;2070629;28;20037;-68
2021/11/23 00:40:03;;;;;;;9.95;7.40;;;1.80;99.90;;;;;;2071657;28;20053;-68
2021/11/23 00:41:04;;;;;;;9.18;7.90;;;1.80;99.90;;;;;;2075545;28;20440;-68
2021/11/23 00:42:05;;;;;;;9.93;7.70;;;1.80;99.90;;;;;;2073694;28;20167;-68
2021/11/23 00:43:05;;;;;;;8.27;7.38;;;1.90;99.90;;;;;;2071877;28;20064;-68
2021/11/23 00:44:06;;;;;;;10.15;7.50;;;1.80;99.90;;;;;;2071754;28;20040;-68
2021/11/23 00:45:07;;;;;;;9.90;8.27;;;1.80;99.90;;;;;;2071523;28;20025;-68
2021/11/23 00:46:08;;;;;;;8.60;7.07;;;1.80;99.90;;;;;;2075881;28;20369;-68
2021/11/23 00:47:09;;;;;;;8.88;7.40;;;1.80;99.90;;;;;;2071985;28;20029;-68
2021/11/23 00:48:09;;;;;;;11.10;8.32;;;1.80;99.90;;;;;;2078628;28;20120;-68
2021/11/23 00:49:11;;;;;;;12.13;8.27;;;1.80;99.90;;;;;;2079271;28;20520;-68
2021/11/23 00:50:14;;;;;;;10.15;7.85;;;1.80;99.90;;;;;;2071561;28;20053;-68
2021/11/23 00:51:14;;;;;;;8.85;7.57;;;1.80;99.90;;;;;;2074736;28;20097;-68
2021/11/23 00:52:15;;;;;;;12.32;8.43;;;1.80;99.90;;;;;;2077015;28;20033;-68
2021/11/23 00:53:16;;;;;;;11.30;8.13;;;1.80;99.90;;;;;;2074344;28;20080;-68
2021/11/23 00:54:17;;;;;;;10.15;7.55;;;1.80;99.90;;;;;;2071336;28;20093;-68
2021/11/23 00:55:17;;;;;;;11.45;8.13;;;1.80;99.90;;;;;;2079934;28;20022;-68
2021/11/23 00:56:18;;;;;;;9.52;8.35;;;1.80;99.90;;;;;;2079854;28;20025;-68
2021/11/23 00:57:18;;;;;;;11.18;8.13;;;1.80;99.90;;;;;;2080130;28;20018;-68
2021/11/23 00:58:19;;;;;;;11.20;7.53;;;1.80;99.90;;;;;;2078915;28;20033;-68
2021/11/23 00:59:20;;;;;;;9.93;7.80;;;1.80;99.90;;;;;;2079979;28;20090;-68
2021/11/23 01:00:21;;;;;;;9.43;7.80;;;1.80;99.90;;;;;;2079601;28;20021;-68
2021/11/23 01:01:21;;;;;;;9.52;7.47;;;1.80;99.90;;;;;;2074448;28;20013;-68
2021/11/23 01:02:22;;;;;;;11.10;8.60;;;1.80;99.90;;;;;;2071226;28;20454;-68
2021/11/23 01:03:23;;;;;;;11.48;9.20;;;1.80;99.90;;;;;;2078790;28;20036;-68
2021/11/23 01:04:23;;;;;;;10.88;8.15;;;1.80;99.90;;;;;;2079469;28;20026;-68
2021/11/23 01:05:24;;;;;;;11.02;7.78;;;1.80;99.90;;;;;;2079999;28;20031;-68
2021/11/23 01:06:24;;;;;;;9.93;7.97;;;1.80;99.90;;;;;;2079318;28;20126;-68
2021/11/23 01:07:25;;;;;;;9.60;8.43;;;1.80;99.90;;;;;;2079726;28;20036;-68
2021/11/23 01:08:30;;;;;;;10.25;9.05;;;1.80;99.90;;;;;;2079265;28;20037;-68
2021/11/23 01:09:31;;;;;;;11.48;7.90;;;1.80;99.90;;;;;;2080099;28;20470;-69
2021/11/23 01:10:32;;;;;;;15.00;8.43;;;1.80;99.90;;;;;;2079621;28;20533;-68
2021/11/23 01:11:32;;;;;;;9.10;8.13;;;1.80;99.90;;;;;;2079538;28;20053;-68
2021/11/23 01:12:33;;;;;;;16.10;9.55;;;1.80;99.90;;;;;;2079280;28;20101;-68
2021/11/23 01:13:35;;;;;;;10.85;8.60;;;1.80;99.90;;;;;;2080076;28;20024;-68
2021/11/23 01:14:36;;;;;;;13.57;9.73;;;1.80;99.90;;;;;;2076821;28;20017;-68
2021/11/23 01:15:37;;;;;;;9.77;8.77;;;1.80;99.90;;;;;;2076418;28;20018;-68
2021/11/23 01:16:38;;;;;;;10.70;9.43;;;1.80;99.90;;;;;;2079290;28;20052;-68
2021/11/23 01:17:38;;;;;;;10.90;8.85;;;1.80;99.90;;;;;;2079479;28;20036;-68
2021/11/23 01:18:39;;;;;;;11.95;8.65;;;1.80;99.90;;;;;;2078666;28;20043;-68
2021/11/23 01:19:40;;;;;;;10.70;8.32;;;1.80;99.90;;;;;;2079931;28;20020;-68
2021/11/23 01:20:41;;;;;;;10.15;8.55;;;1.80;99.90;;;;;;2079453;28;20029;-68
2021/11/23 01:21:42;;;;;;;14.43;8.50;;;1.80;99.90;;;;;;2079520;28;20108;-68
2021/11/23 01:22:45;;;;;;;9.57;8.57;;;1.80;99.90;;;;;;2079716;28;20032;-68
2021/11/23 01:23:45;;;;;;;11.30;8.50;;;1.70;99.90;;;;;;2079645;28;20014;-68
2021/11/23 01:24:46;;;;;;;10.80;8.90;;;1.70;99.90;;;;;;2079809;28;20091;-68
2021/11/23 01:25:48;;;;;;;9.40;8.38;;;1.80;99.90;;;;;;2079178;28;20485;-69
2021/11/23 01:26:48;;;;;;;11.45;9.25;;;1.70;99.90;;;;;;2075369;28;20137;-68
2021/11/23 01:27:49;;;;;;;10.68;8.27;;;1.80;99.90;;;;;;2087959;28;20036;-68
2021/11/23 01:28:50;;;;;;;11.23;7.93;;;1.70;99.90;;;;;;2083918;28;20458;-68
2021/11/23 01:29:50;;;;;;;10.30;8.27;;;1.80;99.90;;;;;;2081111;28;20744;-68
2021/11/23 01:30:51;;;;;;;11.02;7.93;;;1.70;99.90;;;;;;2079247;28;20030;-68
2021/11/23 01:31:52;;;;;;;11.27;9.70;;;1.70;99.90;;;;;;2077012;28;20041;-68
2021/11/23 01:32:52;;;;;;;11.88;9.18;;;1.70;99.90;;;;;;2076909;28;20085;-68
2021/11/23 01:33:53;;;;;;;10.45;8.20;;;1.70;99.90;;;;;;2079390;28;20033;-68
2021/11/23 01:34:54;;;;;;;10.02;8.60;;;1.70;99.90;;;;;;2079780;28;20026;-68
2021/11/23 01:35:54;;;;;;;10.90;8.77;;;1.70;99.90;;;;;;2079143;28;20047;-68
2021/11/23 01:36:55;;;;;;;11.25;8.93;;;1.70;99.90;;;;;;2078966;28;20482;-68
2021/11/23 01:37:56;;;;;;;9.48;8.48;;;1.70;99.90;;;;;;2079485;28;20095;-68
2021/11/23 01:38:57;;;;;;;9.85;8.57;;;1.70;99.90;;;;;;2079161;28;20018;-68
2021/11/23 01:39:57;;;;;;;10.68;8.95;;;1.70;99.90;;;;;;2079345;28;20080;-68
2021/11/23 01:40:58;;;;;;;12.02;9.07;;;1.70;99.90;;;;;;2079739;28;20462;-68
2021/11/23 01:42:00;;;;;;;12.23;9.45;;;1.70;99.90;;;;;;2074022;28;20034;-68
2021/11/23 01:43:05;;;;;;;12.27;9.15;;;1.70;99.90;;;;;;2071604;28;20037;-68
2021/11/23 01:44:06;;;;;;;12.18;9.30;;;1.70;99.90;;;;;;2071340;28;20552;-68
2021/11/23 01:45:08;;;;;;;11.05;9.57;;;1.70;99.90;;;;;;2071175;28;20022;-68
2021/11/23 01:46:09;;;;;;;12.45;9.43;;;1.70;99.90;;;;;;2071194;28;20097;-68
2021/11/23 01:47:09;;;;;;;11.10;9.25;;;1.70;99.90;;;;;;2071492;28;20117;-68
2021/11/23 01:48:11;;;;;;;10.52;9.48;;;1.70;99.90;;;;;;2070885;28;20034;-68
2021/11/23 01:49:11;;;;;;;11.50;9.65;;;1.70;99.90;;;;;;2071884;28;20373;-68
2021/11/23 01:50:12;;;;;;;12.00;8.73;;;1.70;99.90;;;;;;2079165;28;20026;-68
2021/11/23 01:51:13;;;;;;;11.20;9.43;;;1.70;99.90;;;;;;2078061;28;20492;-68
2021/11/23 01:52:14;;;;;;;12.32;9.73;;;1.70;99.90;;;;;;2071105;28;20528;-68
2021/11/23 01:53:15;;;;;;;13.48;9.52;;;1.70;99.90;;;;;;2071279;28;20108;-68
2021/11/23 01:54:16;;;;;;;10.38;9.23;;;1.70;99.90;;;;;;2071159;28;20504;-68
2021/11/23 01:55:17;;;;;;;11.73;9.82;;;1.70;99.90;;;;;;2075889;28;20029;-68
2021/11/23 01:56:17;;;;;;;11.63;8.73;;;1.70;99.90;;;;;;2079417;28;20383;-68
2021/11/23 01:57:19;;;;;;;11.90;9.73;;;1.70;99.90;;;;;;2079540;28;20045;-68
2021/11/23 01:58:20;;;;;;;12.05;10.20;;;1.70;99.90;;;;;;2078925;28;20029;-68
2021/11/23 01:59:21;;;;;;;12.15;10.77;;;1.70;99.90;;;;;;2087280;28;20555;-68
2021/11/23 02:00:22;;;;;;;11.63;9.15;;;1.70;99.90;;;;;;2078316;28;20606;-68
2021/11/23 02:01:23;;;;;;;10.98;9.57;;;1.70;99.90;;;;;;2079002;28;20509;-68
2021/11/23 02:02:24;;;;;;;12.35;9.00;;;1.70;99.90;;;;;;2078586;28;20075;-68
2021/11/23 02:03:25;;;;;;;10.73;9.15;;;1.70;99.90;;;;;;2071410;28;20075;-68
2021/11/23 02:04:26;;;;;;;11.82;9.10;;;1.70;99.90;;;;;;2071810;28;20026;-68
2021/11/23 02:05:26;;;;;;;11.52;9.52;;;1.60;99.90;;;;;;2078004;28;20030;-68
2021/11/23 02:06:27;;;;;;;10.25;9.15;;;1.70;99.90;;;;;;2079625;28;20105;-68
2021/11/23 02:07:28;;;;;;;12.60;10.05;;;1.70;99.90;;;;;;2079218;28;20071;-68
2021/11/23 02:08:29;;;;;;;12.00;10.05;;;1.60;99.90;;;;;;2079197;28;20492;-69
2021/11/23 02:09:30;;;;;;;11.20;9.80;;;1.60;99.90;;;;;;2079549;28;20592;-68
2021/11/23 02:10:31;;;;;;;11.05;9.88;;;1.70;99.90;;;;;;2079161;28;20152;-68
2021/11/23 02:11:32;;;;;;;11.88;9.75;;;1.60;99.90;;;;;;2079151;28;20030;-68
2021/11/23 02:12:34;;;;;;;11.85;10.52;;;1.60;99.90;;;;;;2077987;28;20112;-68
2021/11/23 02:13:35;;;;;;;12.52;10.38;;;1.70;99.90;;;;;;2079369;28;20047;-68
2021/11/23 02:14:36;;;;;;;12.55;9.48;;;1.70;99.90;;;;;;2079783;28;20049;-68
2021/11/23 02:15:38;;;;;;;14.40;10.32;;;1.70;99.90;;;;;;2079093;28;20026;-68
2021/11/23 02:16:38;;;;;;;13.23;9.45;;;1.60;99.90;;;;;;2079583;28;20492;-68
2021/11/23 02:17:42;;;;;;;12.25;9.57;;;1.70;99.90;;;;;;2079396;28;20382;-68
2021/11/23 02:18:42;;;;;;;13.57;10.35;;;1.70;99.90;;;;;;2077449;28;20025;-68
2021/11/23 02:19:50;;;;;;;10.13;9.10;;;1.70;99.90;;;;;;2071448;28;20054;-69
2021/11/23 02:20:51;;;;;;;10.05;8.98;;;1.60;99.90;;;;;;2071076;28;20064;-68
2021/11/23 02:21:51;;;;;;;13.63;10.73;;;1.60;99.90;;;;;;2079172;28;20029;-68
2021/11/23 02:22:52;;;;;;;10.70;9.30;;;1.60;99.90;;;;;;2071374;28;20659;-68
2021/11/23 02:23:52;;;;;;;11.15;9.63;;;1.60;99.90;;;;;;2074674;28;20115;-68
2021/11/23 02:24:53;;;;;;;11.57;9.70;;;1.60;99.90;;;;;;2079709;28;20030;-68
2021/11/23 02:25:54;;;;;;;11.90;10.10;;;1.60;99.90;;;;;;2079293;28;20374;-68
2021/11/23 02:26:55;;;;;;;12.63;10.90;;;1.60;99.90;;;;;;2074725;28;20026;-68
2021/11/23 02:27:55;;;;;;;12.50;9.73;;;1.60;99.90;;;;;;2079374;28;20167;-68
2021/11/23 02:28:56;;;;;;;12.20;10.38;;;1.60;99.90;;;;;;2078796;28;20197;-68
2021/11/23 02:29:57;;;;;;;12.68;10.60;;;1.60;99.90;;;;;;2079035;28;20068;-68
2021/11/23 02:30:59;;;;;;;12.85;10.05;;;1.60;99.90;;;;;;2080009;28;20037;-68
2021/11/23 02:32:00;;;;;;;12.10;9.85;;;1.60;99.90;;;;;;2076150;28;20070;-68
2021/11/23 02:33:01;;;;;;;18.13;11.30;;;1.60;99.90;;;;;;2073716;28;20082;-68
2021/11/23 02:34:01;;;;;;;11.13;9.63;;;1.60;99.90;;;;;;2079715;28;20399;-68
2021/11/23 02:35:02;;;;;;;12.00;10.07;;;1.60;99.90;;;;;;2080376;28;20041;-68
2021/11/23 02:36:07;;;;;;;12.70;10.52;;;1.70;99.90;;;;;;2080898;28;20421;-68
2021/11/23 02:37:07;;;;;;;11.65;9.48;;;1.60;99.90;;;;;;2077691;28;20018;-68
2021/11/23 02:38:08;;;;;;;13.82;11.88;;;1.60;99.90;;;;;;2080142;28;20021;-68
2021/11/23 02:39:08;;;;;;;13.25;10.82;;;1.60;99.90;;;;;;2072660;28;20022;-68
2021/11/23 02:40:10;;;;;;;16.42;12.13;;;1.60;99.90;;;;;;2072776;28;20033;-68
2021/11/23 02:41:12;;;;;;;13.77;11.23;;;1.60;99.90;;;;;;2077348;28;20053;-68
2021/11/23 02:42:13;;;;;;;13.60;11.40;;;1.60;99.90;;;;;;2080815;28;20028;-68
2021/11/23 02:43:14;;;;;;;12.55;11.15;;;1.60;99.90;;;;;;2080929;28;20067;-68
2021/11/23 02:44:14;;;;;;;14.52;11.27;;;1.70;99.90;;;;;;2080847;28;20025;-68
2021/11/23 02:45:20;;;;;;;15.63;12.48;;;1.70;99.90;;;;;;2075309;28;20050;-68
2021/11/23 02:46:21;;;;;;;16.13;12.77;;;1.70;99.90;;;;;;2072627;28;20119;-68
2021/11/23 02:47:22;;;;;;;16.13;12.48;;;1.70;99.90;;;;;;2072949;28;20026;-68
2021/11/23 02:48:22;;;;;;;13.75;11.43;;;1.70;99.90;;;;;;2072113;28;20172;-68
2021/11/23 02:49:23;;;;;;;13.02;11.70;;;1.70;99.90;;;;;;2072796;28;20034;-68
2021/11/23 02:50:25;;;;;;;17.55;12.63;;;1.70;99.90;;;;;;2082392;28;20021;-68
2021/11/23 02:51:28;;;;;;;13.93;12.43;;;1.70;99.90;;;;;;2082895;28;20125;-68
2021/11/23 02:52:28;;;;;;;15.95;12.48;;;1.80;99.90;;;;;;2072618;28;20489;-68
2021/11/23 02:53:30;;;;;;;15.32;12.85;;;1.80;99.90;;;;;;2072757;28;20381;-68
2021/11/23 02:54:30;;;;;;;16.75;12.73;;;1.80;99.90;;;;;;2074636;28;20018;-68
2021/11/23 02:55:33;;;;;;;16.80;13.55;;;1.80;99.90;;;;;;2080903;28;20014;-68
2021/11/23 02:56:35;;;;;;;17.27;13.80;;;1.80;99.90;;;;;;2080491;28;20025;-68
2021/11/23 02:57:35;;;;;;;15.88;12.88;;;1.80;99.90;;;;;;2080525;28;20025;-68
2021/11/23 02:58:36;;;;;;;15.80;12.55;;;1.90;99.90;;;;;;2080142;28;20032;-68
2021/11/23 02:59:36;;;;;;;16.35;12.60;;;1.90;99.90;;;;;;2080292;28;20044;-68
2021/11/23 03:00:39;;;;;;;16.30;12.30;;;1.90;99.90;;;;;;2079954;28;20556;-69
2021/11/23 03:01:40;;;;;;;14.60;13.13;;;1.90;99.90;;;;;;2080707;28;20470;-68
2021/11/23 03:02:41;;;;;;;18.92;13.65;;;2.00;99.90;;;;;;2080756;28;20450;-69
2021/11/23 03:03:42;;;;;;;18.52;14.23;;;2.00;99.90;;;;;;2080947;28;20052;-68
2021/11/23 03:04:42;;;;;;;17.48;14.13;;;2.00;99.90;;;;;;2080197;28;20033;-68
2021/11/23 03:05:43;;;;;;;16.50;14.73;;;2.00;99.90;;;;;;2079700;28;20033;-68
2021/11/23 03:06:45;;;;;;;17.88;14.68;;;2.10;99.90;;;;;;2072371;28;20034;-68
2021/11/23 03:07:47;;;;;;;15.90;13.93;;;2.10;99.90;;;;;;2072622;28;20030;-69
2021/11/23 03:08:49;;;;;;;21.33;14.07;;;2.10;99.90;;;;;;2071504;28;20794;-69
2021/11/23 03:09:50;;;;;;;18.23;14.27;;;2.20;99.90;;;;;;2072344;28;20416;-69
2021/11/23 03:10:52;;;;;;;18.02;13.88;;;2.20;99.90;;;;;;2072420;28;20025;-71
2021/11/23 03:11:52;;;;;;;19.67;14.23;;;2.20;99.90;;;;;;2072958;28;20026;-68
2021/11/23 03:12:55;;;;;;;18.00;14.25;;;2.20;99.90;;;;;;2077145;28;20040;-69
2021/11/23 03:13:56;;;;;;;18.67;15.15;;;2.30;99.90;;;;;;2080785;28;20022;-68
2021/11/23 03:14:56;;;;;;;18.98;14.65;;;2.30;99.90;;;;;;2080246;28;20026;-69
2021/11/23 03:15:57;;;;;;;17.38;14.43;;;2.30;99.90;;;;;;2076015;28;20089;-69
2021/11/23 03:16:57;;;;;;;19.17;14.93;;;2.30;99.90;;;;;;2072390;28;20048;-69
2021/11/23 03:17:58;;;;;;;16.75;14.32;;;2.40;99.90;;;;;;2072449;28;20037;-69
2021/11/23 03:18:59;;;;;;;15.80;13.35;;;2.40;99.90;;;;;;2075217;28;20018;-69
2021/11/23 03:20:00;;;;;;;16.52;14.43;;;2.40;99.90;;;;;;2072691;28;20033;-69
2021/11/23 03:21:00;;;;;;;18.33;13.88;;;2.40;99.90;;;;;;2072022;28;20553;-69
2021/11/23 03:22:02;;;;;;;18.50;14.80;;;2.50;99.90;;;;;;2072692;28;20029;-69
2021/11/23 03:23:05;;;;;;;18.10;14.35;;;2.50;99.90;;;;;;2077197;28;20017;-69
2021/11/23 03:24:06;;;;;;;19.77;14.98;;;2.50;99.90;;;;;;2079688;28;20037;-69
2021/11/23 03:25:08;;;;;;;17.35;15.23;;;2.50;99.90;;;;;;2079681;28;20056;-69
2021/11/23 03:26:08;;;;;;;17.23;14.45;;;2.60;99.90;;;;;;2075502;28;20029;-69
2021/11/23 03:27:10;;;;;;;18.58;14.63;;;2.60;99.90;;;;;;2075930;28;20092;-69
2021/11/23 03:28:11;;;;;;;18.92;15.02;;;2.60;99.90;;;;;;2080165;28;20025;-69
2021/11/23 03:29:12;;;;;;;24.38;16.55;;;2.60;99.90;;;;;;2080142;28;20030;-69
2021/11/23 03:30:17;;;;;;;21.27;15.73;;;2.70;99.90;;;;;;2079908;28;20463;-69
2021/11/23 03:31:18;;;;;;;23.73;16.15;;;2.70;99.90;;;;;;2081728;28;20394;-68
2021/11/23 03:32:19;;;;;;;23.23;16.27;;;2.70;99.90;;;;;;2080614;28;20057;-69
2021/11/23 03:33:20;;;;;;;20.20;15.50;;;2.70;99.90;;;;;;2079872;28;20261;-69
2021/11/23 03:34:21;;;;;;;24.70;15.98;;;2.70;99.90;;;;;;2074516;28;20041;-69
2021/11/23 03:35:24;;;;;;;21.48;16.77;;;2.80;99.90;;;;;;2076627;28;20032;-69
2021/11/23 03:36:25;;;;;;;20.08;15.82;;;2.80;99.90;;;;;;2072555;28;20026;-69
2021/11/23 03:37:26;;;;;;;23.95;16.40;;;2.80;99.90;;;;;;2080001;28;20033;-69
2021/11/23 03:38:28;;;;;;;20.45;16.30;;;2.80;99.90;;;;;;2080187;28;20034;-69
2021/11/23 03:39:29;;;;;;;22.10;15.45;;;2.90;99.90;;;;;;2079692;28;20036;-69
2021/11/23 03:40:31;;;;;;;19.67;15.88;;;2.90;99.90;;;;;;2080153;28;20020;-69
2021/11/23 03:41:32;;;;;;;21.08;15.68;;;2.90;99.90;;;;;;2080249;28;20014;-69
2021/11/23 03:42:33;;;;;;;24.65;16.75;;;3.00;99.90;;;;;;2079948;28;20029;-69
2021/11/23 03:43:33;;;;;;;18.70;15.85;;;3.00;99.90;;;;;;2080756;28;20037;-70
2021/11/23 03:44:35;;;;;;;21.95;16.83;;;3.00;99.90;;;;;;2079605;28;20056;-70
2021/11/23 03:45:36;;;;;;;20.65;16.58;;;3.00;99.90;;;;;;2072639;28;20026;-69
2021/11/23 03:46:37;;;;;;;23.90;16.30;;;3.10;99.90;;;;;;2074603;28;20113;-69
2021/11/23 03:47:38;;;;;;;22.25;17.00;;;3.10;99.90;;;;;;2079885;28;20025;-70
2021/11/23 03:48:38;;;;;;;21.65;16.42;;;3.10;99.90;;;;;;2072545;28;20014;-69
2021/11/23 03:49:44;;;;;;;18.98;15.90;;;3.20;99.90;;;;;;2072170;28;20163;-69
2021/11/23 03:50:44;;;;;;;21.80;16.83;;;3.20;99.90;;;;;;2072003;28;20030;-70
2021/11/23 03:51:45;;;;;;;21.73;16.50;;;3.20;99.90;;;;;;2080003;28;20084;-69
2021/11/23 03:52:47;;;;;;;24.27;17.73;;;3.20;99.90;;;;;;2079670;28;20037;-69
2021/11/23 03:53:48;;;;;;;24.00;16.48;;;3.20;99.90;;;;;;2072471;28;20026;-69
2021/11/23 03:54:49;;;;;;;18.02;16.10;;;3.20;99.90;;;;;;2076623;28;20072;-69
2021/11/23 03:55:50;;;;;;;22.40;17.10;;;3.30;99.90;;;;;;2080616;28;20025;-69
2021/11/23 03:56:51;;;;;;;21.27;16.40;;;3.30;99.90;;;;;;2080384;28;20049;-69
2021/11/23 03:57:53;;;;;;;22.50;17.20;;;3.30;99.90;;;;;;2077329;28;20072;-69
2021/11/23 03:58:53;;;;;;;21.33;16.05;;;3.30;99.90;;;;;;2071565;28;20026;-69
2021/11/23 03:59:54;;;;;;;20.52;16.40;;;3.40;99.90;;;;;;2071656;28;20049;-69
2021/11/23 04:00:54;;;;;;;20.58;16.25;;;3.40;99.90;;;;;;2076794;28;20026;-69
2021/11/23 04:01:55;;;;;;;22.70;16.48;;;3.40;99.90;;;;;;2072642;28;20022;-69
2021/11/23 04:02:56;;;;;;;19.60;15.80;;;3.40;99.90;;;;;;2071846;28;20041;-70
2021/11/23 04:03:57;;;;;;;18.33;16.38;;;3.40;99.90;;;;;;2072236;28;20022;-69
2021/11/23 04:04:57;;;;;;;19.98;16.33;;;3.40;99.90;;;;;;2077689;28;20147;-69
2021/11/23 04:05:58;;;;;;;21.42;16.67;;;3.50;99.90;;;;;;2077511;28;20363;-69
2021/11/23 04:06:59;;;;;;;18.60;16.27;;;3.50;99.90;;;;;;2072159;28;20033;-69
2021/11/23 04:07:59;;;;;;;20.73;16.15;;;3.50;99.90;;;;;;2072313;28;20033;-70
2021/11/23 04:09:00;;;;;;;25.80;15.68;;;3.50;99.90;;;;;;2071435;28;20053;-70
2021/11/23 04:10:01;;;;;;;22.95;17.13;;;3.50;99.90;;;;;;2072066;28;20026;-70
2021/11/23 04:11:01;;;;;;;23.25;16.67;;;3.50;99.90;;;;;;2076377;28;20032;-70
2021/11/23 04:12:02;;;;;;;21.52;16.63;;;3.50;99.90;;;;;;2080511;28;20021;-70
2021/11/23 04:13:03;;;;;;;20.98;16.73;;;3.60;99.90;;;;;;2079865;28;20036;-70
2021/11/23 04:14:04;;;;;;;24.73;17.52;;;3.60;99.90;;;;;;2080277;28;20064;-70
2021/11/23 04:15:06;;;;;;;20.52;17.08;;;3.60;99.90;;;;;;2079378;28;20087;-70
2021/11/23 04:16:07;;;;;;;20.63;16.77;;;3.60;99.90;;;;;;2080213;28;20032;-70
2021/11/23 04:17:08;;;;;;;21.92;17.25;;;3.70;99.90;;;;;;2080116;28;20083;-70
2021/11/23 04:18:08;;;;;;;19.58;16.35;;;3.70;99.90;;;;;;2079995;28;20029;-69
2021/11/23 04:19:09;;;;;;;19.48;16.73;;;3.70;99.90;;;;;;2080116;28;20091;-70
2021/11/23 04:20:10;;;;;;;24.48;17.70;;;3.70;99.90;;;;;;2080038;28;20108;-70
2021/11/23 04:21:11;;;;;;;24.92;18.27;;;3.70;99.90;;;;;;2079778;28;20022;-70
2021/11/23 04:22:12;;;;;;;19.95;17.30;;;3.70;99.90;;;;;;2080152;28;20030;-70
2021/11/23 04:23:13;;;;;;;23.00;18.48;;;3.70;99.90;;;;;;2080191;28;20029;-70
2021/11/23 04:24:13;;;;;;;26.10;19.63;;;3.80;99.90;;;;;;2079805;28;20025;-70
2021/11/23 04:25:14;;;;;;;28.08;18.70;;;3.80;99.90;;;;;;2078511;28;20659;-70
2021/11/23 04:26:15;;;;;;;25.52;18.52;;;3.80;99.90;;;;;;2074250;28;20021;-70
2021/11/23 04:27:15;;;;;;;22.25;18.42;;;3.80;99.90;;;;;;2076718;28;20020;-70
2021/11/23 04:28:16;;;;;;;22.80;17.92;;;3.90;99.90;;;;;;2079227;28;20025;-70
2021/11/23 04:29:17;;;;;;;23.45;19.55;;;3.90;99.90;;;;;;2076860;28;20354;-70
2021/11/23 04:30:18;;;;;;;21.98;18.58;;;3.90;99.90;;;;;;2079645;28;20110;-70
2021/11/23 04:31:18;;;;;;;27.77;21.58;;;3.90;99.90;;;;;;2080181;28;20034;-71
2021/11/23 04:32:19;;;;;;;23.02;19.42;;;3.90;99.90;;;;;;2080076;28;20373;-70
2021/11/23 04:33:19;;;;;;;25.67;20.67;;;3.90;99.90;;;;;;2076767;28;20030;-70
2021/11/23 04:34:20;;;;;;;25.52;20.45;;;3.90;99.90;;;;;;2079867;28;20105;-70
2021/11/23 04:35:21;;;;;;;29.35;19.52;;;3.90;99.90;;;;;;2079911;28;20009;-70
2021/11/23 04:36:21;;;;;;;21.88;19.52;;;4.00;99.90;;;;;;2079044;28;20405;-70
2021/11/23 04:37:22;;;;;;;25.73;19.73;;;4.00;99.90;;;;;;2079480;28;20026;-70
2021/11/23 04:38:23;;;;;;;27.83;20.30;;;4.00;99.90;;;;;;2079416;28;20112;-70
2021/11/23 04:39:23;;;;;;;23.30;19.70;;;4.00;99.90;;;;;;2080406;28;20026;-70
2021/11/23 04:40:24;;;;;;;26.30;19.80;;;4.00;99.90;;;;;;2079689;28;20044;-70
2021/11/23 04:41:25;;;;;;;25.42;19.85;;;4.00;99.90;;;;;;2079398;28;20029;-71
2021/11/23 04:42:25;;;;;;;21.30;19.00;;;4.10;99.90;;;;;;2073391;28;20033;-71
2021/11/23 04:43:26;;;;;;;26.95;20.88;;;4.10;99.90;;;;;;2076356;28;20017;-71
2021/11/23 04:44:26;;;;;;;26.35;21.42;;;4.10;99.90;;;;;;2071446;28;20061;-70
2021/11/23 04:45:28;;;;;;;25.13;20.65;;;4.10;99.90;;;;;;2071811;28;20026;-70
2021/11/23 04:46:28;;;;;;;28.05;21.27;;;4.10;99.90;;;;;;2072027;28;20049;-71
2021/11/23 04:47:29;;;;;;;23.73;20.70;;;4.10;99.90;;;;;;2071858;28;20029;-70
2021/11/23 04:48:30;;;;;;;27.77;21.50;;;4.10;99.90;;;;;;2071109;28;20018;-70
2021/11/23 04:49:30;;;;;;;28.60;20.85;;;4.20;99.90;;;;;;2072058;28;20088;-70
2021/11/23 04:50:31;;;;;;;34.65;22.63;;;4.20;99.90;;;;;;2071636;28;20014;-71
2021/11/23 04:51:32;;;;;;;26.52;21.85;;;4.20;99.90;;;;;;2075349;28;20065;-70
2021/11/23 04:52:33;;;;;;;29.50;22.15;;;4.20;99.90;;;;;;2071456;28;20030;-70
2021/11/23 04:53:34;;;;;;;27.13;22.02;;;4.20;99.90;;;;;;2071043;28;20050;-71
2021/11/23 04:54:34;;;;;;;27.35;22.08;;;4.30;99.90;;;;;;2074232;28;20018;-71
2021/11/23 04:55:35;;;;;;;31.60;22.25;;;4.30;99.90;;;;;;2079785;28;20031;-71
2021/11/23 04:56:36;;;;;;;29.27;21.85;;;4.30;99.90;;;;;;2079455;28;20053;-71
2021/11/23 04:57:37;;;;;;;28.98;22.58;;;4.30;99.90;;;;;;2079903;28;20029;-71
2021/11/23 04:58:38;;;;;;;26.13;21.88;;;4.30;99.90;;;;;;2079581;28;20033;-71
2021/11/23 04:59:39;;;;;;;25.35;21.35;;;4.30;99.90;;;;;;2079522;28;20022;-71
2021/11/23 05:00:39;;;;;;;30.58;22.95;;;4.30;99.90;;;;;;2080036;28;20018;-71
2021/11/23 05:01:40;;;;;;;25.90;21.83;;;4.40;99.90;;;;;;2079360;28;20017;-71
2021/11/23 05:02:42;;;;;;;27.27;21.38;;;4.40;99.90;;;;;;2079759;28;20029;-71
2021/11/23 05:03:42;;;;;;;26.55;21.40;;;4.40;99.90;;;;;;2079854;28;20493;-71
2021/11/23 05:04:43;;;;;;;28.55;21.85;;;4.40;99.90;;;;;;2080013;28;20583;-71
2021/11/23 05:05:43;;;;;;;32.15;22.92;;;4.40;99.90;;;;;;2079531;28;20036;-71
2021/11/23 05:06:44;;;;;;;30.42;22.15;;;4.40;99.90;;;;;;2079947;28;20021;-71
2021/11/23 05:07:45;;;;;;;29.38;21.83;;;4.50;99.90;;;;;;2079492;28;20831;-71
2021/11/23 05:08:46;;;;;;;28.60;21.65;;;4.50;99.90;;;;;;2079494;28;20044;-71
2021/11/23 05:09:46;;;;;;;27.73;22.08;;;4.50;99.90;;;;;;2087051;28;20060;-71
2021/11/23 05:10:47;;;;;;;26.67;22.52;;;4.50;99.90;;;;;;2083405;28;20041;-71
2021/11/23 05:11:48;;;;;;;29.77;23.38;;;4.50;99.90;;;;;;2071229;28;20117;-71
2021/11/23 05:12:49;;;;;;;29.00;22.90;;;4.50;99.90;;;;;;2078399;28;20040;-71
2021/11/23 05:13:49;;;;;;;30.02;22.90;;;4.60;99.90;;;;;;2078857;28;20760;-71
2021/11/23 05:14:51;;;;;;;29.90;23.17;;;4.60;99.90;;;;;;2071070;28;20022;-71
2021/11/23 05:15:51;;;;;;;29.85;22.60;;;4.60;99.90;;;;;;2073528;28;20068;-71